sensor_id;sensor_type;location;lat;lon;timestamp;temperature;humidity
40023;DHT22;25713;-35.352;149.036;2023-08-31T00:00:00;12.00;90.70
40023;DHT22;25713;-35.352;149.036;2023-08-31T00:02:29;11.90;90.70
40023;DHT22;25713;-35.352;149.036;2023-08-31T00:04:59;12.00;90.80
40023;DHT22;25713;-35.352;149.036;2023-08-31T00:07:29;12.00;90.80
40023;DHT22;25713;-35.352;149.036;2023-08-31T00:09:58;11.90;90.80
40023;DHT22;25713;-35.352;149.036;2023-08-31T00:12:31;12.00;90.90
40023;DHT22;25713;-35.352;149.036;2023-08-31T00:15:01;11.90;91.00
40023;DHT22;25713;-35.352;149.036;2023-08-31T00:17:31;11.90;91.40
40023;DHT22;25713;-35.352;149.036;2023-08-31T00:20:01;11.90;91.30
40023;DHT22;25713;-35.352;149.036;2023-08-31T00:22:30;12.00;91.50
40023;DHT22;25713;-35.352;149.036;2023-08-31T00:25:00;12.10;91.40
40023;DHT22;25713;-35.352;149.036;2023-08-31T00:27:32;12.20;91.30
40023;DHT22;25713;-35.352;149.036;2023-08-31T00:30:02;12.20;91.10
40023;DHT22;25713;-35.352;149.036;2023-08-31T00:32:32;12.20;91.10
40023;DHT22;25713;-35.352;149.036;2023-08-31T00:35:02;12.20;91.10
40023;DHT22;25713;-35.352;149.036;2023-08-31T00:37:32;12.30;91.10
40023;DHT22;25713;-35.352;149.036;2023-08-31T00:40:02;12.30;91.00
40023;DHT22;25713;-35.352;149.036;2023-08-31T00:42:35;12.30;91.00
40023;DHT22;25713;-35.352;149.036;2023-08-31T00:45:05;12.40;91.20
40023;DHT22;25713;-35.352;149.036;2023-08-31T00:47:35;12.40;90.90
40023;DHT22;25713;-35.352;149.036;2023-08-31T00:50:06;12.40;90.90
40023;DHT22;25713;-35.352;149.036;2023-08-31T00:52:36;12.40;90.90
40023;DHT22;25713;-35.352;149.036;2023-08-31T00:55:06;12.50;91.00
40023;DHT22;25713;-35.352;149.036;2023-08-31T00:57:40;12.40;91.00
40023;DHT22;25713;-35.352;149.036;2023-08-31T01:00:10;12.40;91.30
40023;DHT22;25713;-35.352;149.036;2023-08-31T01:02:45;12.40;91.50
40023;DHT22;25713;-35.352;149.036;2023-08-31T01:05:32;12.50;91.50
40023;DHT22;25713;-35.352;149.036;2023-08-31T01:08:12;12.50;91.00
40023;DHT22;25713;-35.352;149.036;2023-08-31T01:10:53;12.50;91.10
40023;DHT22;25713;-35.352;149.036;2023-08-31T01:13:32;12.60;91.20
40023;DHT22;25713;-35.352;149.036;2023-08-31T01:16:06;12.60;91.10
40023;DHT22;25713;-35.352;149.036;2023-08-31T01:18:39;12.70;90.90
40023;DHT22;25713;-35.352;149.036;2023-08-31T01:21:17;12.70;90.80
40023;DHT22;25713;-35.352;149.036;2023-08-31T01:23:55;12.70;90.70
40023;DHT22;25713;-35.352;149.036;2023-08-31T01:26:25;12.60;91.10
40023;DHT22;25713;-35.352;149.036;2023-08-31T01:28:56;12.70;91.20
40023;DHT22;25713;-35.352;149.036;2023-08-31T01:31:26;12.70;91.30
40023;DHT22;25713;-35.352;149.036;2023-08-31T01:33:55;12.60;91.20
40023;DHT22;25713;-35.352;149.036;2023-08-31T01:36:28;12.60;91.40
40023;DHT22;25713;-35.352;149.036;2023-08-31T01:39:06;12.70;91.40
40023;DHT22;25713;-35.352;149.036;2023-08-31T01:41:39;12.70;91.20
40023;DHT22;25713;-35.352;149.036;2023-08-31T01:44:10;12.70;91.40
40023;DHT22;25713;-35.352;149.036;2023-08-31T01:46:45;12.80;91.20
40023;DHT22;25713;-35.352;149.036;2023-08-31T01:49:15;12.80;91.00
40023;DHT22;25713;-35.352;149.036;2023-08-31T01:51:46;12.90;91.00
40023;DHT22;25713;-35.352;149.036;2023-08-31T01:54:19;13.00;91.00
40023;DHT22;25713;-35.352;149.036;2023-08-31T01:56:49;13.00;91.00
40023;DHT22;25713;-35.352;149.036;2023-08-31T01:59:19;13.00;90.80
40023;DHT22;25713;-35.352;149.036;2023-08-31T02:01:49;13.10;90.90
40023;DHT22;25713;-35.352;149.036;2023-08-31T02:04:19;13.10;90.60
40023;DHT22;25713;-35.352;149.036;2023-08-31T02:06:49;13.10;90.50
40023;DHT22;25713;-35.352;149.036;2023-08-31T02:09:22;13.10;90.50
40023;DHT22;25713;-35.352;149.036;2023-08-31T02:11:50;13.20;90.70
40023;DHT22;25713;-35.352;149.036;2023-08-31T02:14:20;13.20;90.50
40023;DHT22;25713;-35.352;149.036;2023-08-31T02:16:51;13.10;90.70
40023;DHT22;25713;-35.352;149.036;2023-08-31T02:19:20;13.10;90.90
40023;DHT22;25713;-35.352;149.036;2023-08-31T02:21:50;13.20;90.70
40023;DHT22;25713;-35.352;149.036;2023-08-31T02:24:25;13.20;90.60
40023;DHT22;25713;-35.352;149.036;2023-08-31T02:26:53;13.20;90.70
40023;DHT22;25713;-35.352;149.036;2023-08-31T02:29:22;13.20;90.60
40023;DHT22;25713;-35.352;149.036;2023-08-31T02:31:52;13.30;90.60
40023;DHT22;25713;-35.352;149.036;2023-08-31T02:34:21;13.30;90.50
40023;DHT22;25713;-35.352;149.036;2023-08-31T02:36:51;13.40;90.70
40023;DHT22;25713;-35.352;149.036;2023-08-31T02:39:25;13.40;90.40
40023;DHT22;25713;-35.352;149.036;2023-08-31T02:41:55;13.50;90.30
40023;DHT22;25713;-35.352;149.036;2023-08-31T02:44:25;13.50;90.20
40023;DHT22;25713;-35.352;149.036;2023-08-31T02:46:55;13.50;90.10
40023;DHT22;25713;-35.352;149.036;2023-08-31T02:49:25;13.50;90.10
40023;DHT22;25713;-35.352;149.036;2023-08-31T02:51:54;13.50;90.20
40023;DHT22;25713;-35.352;149.036;2023-08-31T02:54:27;13.60;90.40
40023;DHT22;25713;-35.352;149.036;2023-08-31T02:56:56;13.70;89.80
40023;DHT22;25713;-35.352;149.036;2023-08-31T02:59:26;13.70;89.60
40023;DHT22;25713;-35.352;149.036;2023-08-31T03:01:55;13.70;90.10
40023;DHT22;25713;-35.352;149.036;2023-08-31T03:04:25;13.80;90.10
40023;DHT22;25713;-35.352;149.036;2023-08-31T03:06:54;13.80;90.00
40023;DHT22;25713;-35.352;149.036;2023-08-31T03:09:26;13.80;90.00
40023;DHT22;25713;-35.352;149.036;2023-08-31T03:11:57;13.80;90.10
40023;DHT22;25713;-35.352;149.036;2023-08-31T03:14:27;13.80;89.80
40023;DHT22;25713;-35.352;149.036;2023-08-31T03:16:56;13.80;90.30
40023;DHT22;25713;-35.352;149.036;2023-08-31T03:19:26;13.80;90.10
40023;DHT22;25713;-35.352;149.036;2023-08-31T03:21:56;13.90;90.10
40023;DHT22;25713;-35.352;149.036;2023-08-31T03:24:29;13.90;90.00
40023;DHT22;25713;-35.352;149.036;2023-08-31T03:27:00;13.90;90.30
40023;DHT22;25713;-35.352;149.036;2023-08-31T03:29:29;14.00;90.00
40023;DHT22;25713;-35.352;149.036;2023-08-31T03:32:00;14.00;89.90
40023;DHT22;25713;-35.352;149.036;2023-08-31T03:34:30;14.00;89.10
40023;DHT22;25713;-35.352;149.036;2023-08-31T03:37:00;14.00;88.80
40023;DHT22;25713;-35.352;149.036;2023-08-31T03:39:33;14.00;89.40
40023;DHT22;25713;-35.352;149.036;2023-08-31T03:42:02;14.10;88.90
40023;DHT22;25713;-35.352;149.036;2023-08-31T03:44:32;14.10;88.50
40023;DHT22;25713;-35.352;149.036;2023-08-31T03:47:01;14.10;88.20
40023;DHT22;25713;-35.352;149.036;2023-08-31T03:49:31;14.10;87.50
40023;DHT22;25713;-35.352;149.036;2023-08-31T03:52:00;14.10;87.70
40023;DHT22;25713;-35.352;149.036;2023-08-31T03:54:34;14.20;88.10
40023;DHT22;25713;-35.352;149.036;2023-08-31T03:57:03;14.10;87.70
40023;DHT22;25713;-35.352;149.036;2023-08-31T03:59:33;14.20;87.40
40023;DHT22;25713;-35.352;149.036;2023-08-31T04:02:04;14.20;87.50
40023;DHT22;25713;-35.352;149.036;2023-08-31T04:04:33;14.30;86.60
40023;DHT22;25713;-35.352;149.036;2023-08-31T04:07:03;14.30;86.30
40023;DHT22;25713;-35.352;149.036;2023-08-31T04:09:37;14.30;86.50
40023;DHT22;25713;-35.352;149.036;2023-08-31T04:12:07;14.30;86.00
40023;DHT22;25713;-35.352;149.036;2023-08-31T04:14:37;14.30;85.50
40023;DHT22;25713;-35.352;149.036;2023-08-31T04:17:06;14.40;85.20
40023;DHT22;25713;-35.352;149.036;2023-08-31T04:19:38;14.40;84.90
40023;DHT22;25713;-35.352;149.036;2023-08-31T04:22:07;14.40;84.40
40023;DHT22;25713;-35.352;149.036;2023-08-31T04:24:40;14.50;83.90
40023;DHT22;25713;-35.352;149.036;2023-08-31T04:27:10;14.50;83.60
40023;DHT22;25713;-35.352;149.036;2023-08-31T04:29:39;14.40;83.80
40023;DHT22;25713;-35.352;149.036;2023-08-31T04:32:09;14.50;83.00
40023;DHT22;25713;-35.352;149.036;2023-08-31T04:34:38;14.40;82.90
40023;DHT22;25713;-35.352;149.036;2023-08-31T04:37:07;14.50;82.50
40023;DHT22;25713;-35.352;149.036;2023-08-31T04:39:39;14.50;81.70
40023;DHT22;25713;-35.352;149.036;2023-08-31T04:42:08;14.50;81.70
40023;DHT22;25713;-35.352;149.036;2023-08-31T04:44:38;14.50;81.60
40023;DHT22;25713;-35.352;149.036;2023-08-31T04:47:07;14.50;81.00
40023;DHT22;25713;-35.352;149.036;2023-08-31T04:49:36;14.50;81.20
40023;DHT22;25713;-35.352;149.036;2023-08-31T04:52:07;14.50;81.40
40023;DHT22;25713;-35.352;149.036;2023-08-31T04:54:39;14.40;81.50
40023;DHT22;25713;-35.352;149.036;2023-08-31T04:57:09;14.50;81.60
40023;DHT22;25713;-35.352;149.036;2023-08-31T04:59:39;14.50;83.00
40023;DHT22;25713;-35.352;149.036;2023-08-31T05:02:08;14.50;82.30
40023;DHT22;25713;-35.352;149.036;2023-08-31T05:04:38;14.50;82.20
40023;DHT22;25713;-35.352;149.036;2023-08-31T05:07:07;14.50;82.00
40023;DHT22;25713;-35.352;149.036;2023-08-31T05:09:39;14.50;82.10
40023;DHT22;25713;-35.352;149.036;2023-08-31T05:12:09;14.40;83.50
40023;DHT22;25713;-35.352;149.036;2023-08-31T05:14:38;14.40;82.40
40023;DHT22;25713;-35.352;149.036;2023-08-31T05:17:07;14.40;82.50
40023;DHT22;25713;-35.352;149.036;2023-08-31T05:19:37;14.40;82.00
40023;DHT22;25713;-35.352;149.036;2023-08-31T05:22:06;14.40;82.50
40023;DHT22;25713;-35.352;149.036;2023-08-31T05:24:38;14.30;82.70
40023;DHT22;25713;-35.352;149.036;2023-08-31T05:27:08;14.30;82.40
40023;DHT22;25713;-35.352;149.036;2023-08-31T05:29:37;14.30;82.60
40023;DHT22;25713;-35.352;149.036;2023-08-31T05:32:07;14.30;82.00
40023;DHT22;25713;-35.352;149.036;2023-08-31T05:34:36;14.30;82.10
40023;DHT22;25713;-35.352;149.036;2023-08-31T05:37:06;14.30;82.30
40023;DHT22;25713;-35.352;149.036;2023-08-31T05:39:35;14.30;82.20
40023;DHT22;25713;-35.352;149.036;2023-08-31T05:42:07;14.20;81.50
40023;DHT22;25713;-35.352;149.036;2023-08-31T05:44:36;14.20;81.50
40023;DHT22;25713;-35.352;149.036;2023-08-31T05:47:06;14.20;82.50
40023;DHT22;25713;-35.352;149.036;2023-08-31T05:49:35;14.20;82.50
40023;DHT22;25713;-35.352;149.036;2023-08-31T05:52:06;14.40;81.90
40023;DHT22;25713;-35.352;149.036;2023-08-31T05:54:35;14.30;81.80
40023;DHT22;25713;-35.352;149.036;2023-08-31T05:57:07;14.40;81.50
40023;DHT22;25713;-35.352;149.036;2023-08-31T05:59:36;14.30;82.10
40023;DHT22;25713;-35.352;149.036;2023-08-31T06:02:06;14.30;81.20
40023;DHT22;25713;-35.352;149.036;2023-08-31T06:04:36;14.30;82.00
40023;DHT22;25713;-35.352;149.036;2023-08-31T06:07:05;14.30;81.60
40023;DHT22;25713;-35.352;149.036;2023-08-31T06:09:35;14.20;82.10
40023;DHT22;25713;-35.352;149.036;2023-08-31T06:12:07;14.20;82.10
40023;DHT22;25713;-35.352;149.036;2023-08-31T06:14:36;14.20;82.00
40023;DHT22;25713;-35.352;149.036;2023-08-31T06:17:06;14.20;82.40
40023;DHT22;25713;-35.352;149.036;2023-08-31T06:19:35;14.20;81.90
40023;DHT22;25713;-35.352;149.036;2023-08-31T06:22:05;14.20;82.50
40023;DHT22;25713;-35.352;149.036;2023-08-31T06:24:34;14.20;82.40
40023;DHT22;25713;-35.352;149.036;2023-08-31T06:27:04;14.20;83.20
40023;DHT22;25713;-35.352;149.036;2023-08-31T06:29:35;14.10;82.90
40023;DHT22;25713;-35.352;149.036;2023-08-31T06:32:05;14.10;82.30
40023;DHT22;25713;-35.352;149.036;2023-08-31T06:34:35;14.00;82.40
40023;DHT22;25713;-35.352;149.036;2023-08-31T06:37:04;14.00;82.60
40023;DHT22;25713;-35.352;149.036;2023-08-31T06:39:34;14.00;83.20
40023;DHT22;25713;-35.352;149.036;2023-08-31T06:42:03;14.00;83.10
40023;DHT22;25713;-35.352;149.036;2023-08-31T06:44:35;14.00;83.00
40023;DHT22;25713;-35.352;149.036;2023-08-31T06:47:04;14.00;82.40
40023;DHT22;25713;-35.352;149.036;2023-08-31T06:49:34;14.00;81.70
40023;DHT22;25713;-35.352;149.036;2023-08-31T06:52:04;14.00;82.70
40023;DHT22;25713;-35.352;149.036;2023-08-31T06:54:34;13.90;83.00
40023;DHT22;25713;-35.352;149.036;2023-08-31T06:57:03;13.90;82.90
40023;DHT22;25713;-35.352;149.036;2023-08-31T06:59:36;13.90;82.60
40023;DHT22;25713;-35.352;149.036;2023-08-31T07:02:06;13.90;83.30
40023;DHT22;25713;-35.352;149.036;2023-08-31T07:04:35;13.90;83.10
40023;DHT22;25713;-35.352;149.036;2023-08-31T07:07:05;13.80;83.00
40023;DHT22;25713;-35.352;149.036;2023-08-31T07:09:35;13.80;83.80
40023;DHT22;25713;-35.352;149.036;2023-08-31T07:12:04;13.80;84.20
40023;DHT22;25713;-35.352;149.036;2023-08-31T07:14:37;13.70;83.90
40023;DHT22;25713;-35.352;149.036;2023-08-31T07:17:07;13.70;83.40
40023;DHT22;25713;-35.352;149.036;2023-08-31T07:19:37;13.60;83.40
40023;DHT22;25713;-35.352;149.036;2023-08-31T07:22:07;13.60;83.50
40023;DHT22;25713;-35.352;149.036;2023-08-31T07:24:37;13.50;83.40
40023;DHT22;25713;-35.352;149.036;2023-08-31T07:27:07;13.50;83.50
40023;DHT22;25713;-35.352;149.036;2023-08-31T07:29:40;13.50;82.50
40023;DHT22;25713;-35.352;149.036;2023-08-31T07:32:09;13.40;83.30
40023;DHT22;25713;-35.352;149.036;2023-08-31T07:34:39;13.40;82.30
40023;DHT22;25713;-35.352;149.036;2023-08-31T07:37:08;13.40;82.50
40023;DHT22;25713;-35.352;149.036;2023-08-31T07:39:38;13.30;82.30
40023;DHT22;25713;-35.352;149.036;2023-08-31T07:42:08;13.30;83.30
40023;DHT22;25713;-35.352;149.036;2023-08-31T07:44:39;13.30;83.10
40023;DHT22;25713;-35.352;149.036;2023-08-31T07:47:09;13.30;83.30
40023;DHT22;25713;-35.352;149.036;2023-08-31T07:49:38;13.40;82.50
40023;DHT22;25713;-35.352;149.036;2023-08-31T07:52:08;13.30;83.60
40023;DHT22;25713;-35.352;149.036;2023-08-31T07:54:37;13.30;83.00
40023;DHT22;25713;-35.352;149.036;2023-08-31T07:57:06;13.30;82.80
40023;DHT22;25713;-35.352;149.036;2023-08-31T07:59:40;13.30;82.10
40023;DHT22;25713;-35.352;149.036;2023-08-31T08:02:09;13.30;83.00
40023;DHT22;25713;-35.352;149.036;2023-08-31T08:04:39;13.30;83.80
40023;DHT22;25713;-35.352;149.036;2023-08-31T08:07:08;13.20;83.00
40023;DHT22;25713;-35.352;149.036;2023-08-31T08:09:38;13.30;84.10
40023;DHT22;25713;-35.352;149.036;2023-08-31T08:12:08;13.30;83.20
40023;DHT22;25713;-35.352;149.036;2023-08-31T08:14:41;13.20;83.60
40023;DHT22;25713;-35.352;149.036;2023-08-31T08:17:10;13.30;83.80
40023;DHT22;25713;-35.352;149.036;2023-08-31T08:19:40;13.30;84.30
40023;DHT22;25713;-35.352;149.036;2023-08-31T08:22:09;13.30;84.70
40023;DHT22;25713;-35.352;149.036;2023-08-31T08:24:39;13.40;84.90
40023;DHT22;25713;-35.352;149.036;2023-08-31T08:27:08;13.50;85.30
40023;DHT22;25713;-35.352;149.036;2023-08-31T08:29:41;13.50;85.50
40023;DHT22;25713;-35.352;149.036;2023-08-31T08:32:11;13.60;85.50
40023;DHT22;25713;-35.352;149.036;2023-08-31T08:34:40;13.60;85.30
40023;DHT22;25713;-35.352;149.036;2023-08-31T08:37:09;13.70;84.80
40023;DHT22;25713;-35.352;149.036;2023-08-31T08:39:39;13.70;83.90
40023;DHT22;25713;-35.352;149.036;2023-08-31T08:42:11;13.70;84.00
40023;DHT22;25713;-35.352;149.036;2023-08-31T08:44:44;13.60;84.10
40023;DHT22;25713;-35.352;149.036;2023-08-31T08:47:14;13.60;84.10
40023;DHT22;25713;-35.352;149.036;2023-08-31T08:49:45;13.50;84.20
40023;DHT22;25713;-35.352;149.036;2023-08-31T08:52:16;13.60;84.60
40023;DHT22;25713;-35.352;149.036;2023-08-31T08:54:46;13.50;84.30
40023;DHT22;25713;-35.352;149.036;2023-08-31T08:57:16;13.60;84.20
40023;DHT22;25713;-35.352;149.036;2023-08-31T08:59:48;13.50;84.20
40023;DHT22;25713;-35.352;149.036;2023-08-31T09:02:17;13.50;84.30
40023;DHT22;25713;-35.352;149.036;2023-08-31T09:04:47;13.50;84.60
40023;DHT22;25713;-35.352;149.036;2023-08-31T09:07:16;13.50;84.20
40023;DHT22;25713;-35.352;149.036;2023-08-31T09:09:52;13.50;84.10
40023;DHT22;25713;-35.352;149.036;2023-08-31T09:12:23;13.60;83.80
40023;DHT22;25713;-35.352;149.036;2023-08-31T09:15:02;13.50;82.60
40023;DHT22;25713;-35.352;149.036;2023-08-31T09:17:40;13.30;82.50
40023;DHT22;25713;-35.352;149.036;2023-08-31T09:20:10;13.10;82.10
40023;DHT22;25713;-35.352;149.036;2023-08-31T09:22:43;13.00;83.90
40023;DHT22;25713;-35.352;149.036;2023-08-31T09:25:13;12.90;85.00
40023;DHT22;25713;-35.352;149.036;2023-08-31T09:27:42;12.90;84.90
40023;DHT22;25713;-35.352;149.036;2023-08-31T09:30:14;12.90;83.70
40023;DHT22;25713;-35.352;149.036;2023-08-31T09:32:44;12.80;84.60
40023;DHT22;25713;-35.352;149.036;2023-08-31T09:35:20;12.90;84.60
40023;DHT22;25713;-35.352;149.036;2023-08-31T09:37:56;12.90;84.90
40023;DHT22;25713;-35.352;149.036;2023-08-31T09:40:26;12.90;85.30
40023;DHT22;25713;-35.352;149.036;2023-08-31T09:42:56;12.90;84.70
40023;DHT22;25713;-35.352;149.036;2023-08-31T09:45:32;12.90;84.70
40023;DHT22;25713;-35.352;149.036;2023-08-31T09:48:03;12.90;84.40
40023;DHT22;25713;-35.352;149.036;2023-08-31T09:50:34;13.00;85.30
40023;DHT22;25713;-35.352;149.036;2023-08-31T09:53:06;13.00;85.50
40023;DHT22;25713;-35.352;149.036;2023-08-31T09:55:40;13.00;83.90
40023;DHT22;25713;-35.352;149.036;2023-08-31T09:58:10;12.90;83.90
40023;DHT22;25713;-35.352;149.036;2023-08-31T10:00:42;12.90;85.00
40023;DHT22;25713;-35.352;149.036;2023-08-31T10:03:12;12.90;85.20
40023;DHT22;25713;-35.352;149.036;2023-08-31T10:05:44;12.90;85.40
40023;DHT22;25713;-35.352;149.036;2023-08-31T10:08:15;13.00;84.60
40023;DHT22;25713;-35.352;149.036;2023-08-31T10:10:45;12.90;85.30
40023;DHT22;25713;-35.352;149.036;2023-08-31T10:13:15;13.00;85.20
40023;DHT22;25713;-35.352;149.036;2023-08-31T10:15:50;13.00;85.30
40023;DHT22;25713;-35.352;149.036;2023-08-31T10:18:19;13.00;84.70
40023;DHT22;25713;-35.352;149.036;2023-08-31T10:20:49;13.10;84.70
40023;DHT22;25713;-35.352;149.036;2023-08-31T10:23:19;13.10;84.60
40023;DHT22;25713;-35.352;149.036;2023-08-31T10:26:06;13.10;84.50
40023;DHT22;25713;-35.352;149.036;2023-08-31T10:28:43;13.20;84.70
40023;DHT22;25713;-35.352;149.036;2023-08-31T10:31:17;13.20;84.40
40023;DHT22;25713;-35.352;149.036;2023-08-31T10:33:47;13.30;84.50
40023;DHT22;25713;-35.352;149.036;2023-08-31T10:36:34;13.20;84.30
40023;DHT22;25713;-35.352;149.036;2023-08-31T10:39:10;13.20;84.10
40023;DHT22;25713;-35.352;149.036;2023-08-31T10:41:40;13.30;84.00
40023;DHT22;25713;-35.352;149.036;2023-08-31T10:44:22;13.30;83.80
40023;DHT22;25713;-35.352;149.036;2023-08-31T10:46:54;13.30;83.70
40023;DHT22;25713;-35.352;149.036;2023-08-31T10:49:24;13.30;83.50
40023;DHT22;25713;-35.352;149.036;2023-08-31T10:51:56;13.30;83.60
40023;DHT22;25713;-35.352;149.036;2023-08-31T10:54:26;13.20;83.20
40023;DHT22;25713;-35.352;149.036;2023-08-31T10:57:06;13.30;83.00
40023;DHT22;25713;-35.352;149.036;2023-08-31T10:59:49;13.20;83.10
40023;DHT22;25713;-35.352;149.036;2023-08-31T11:02:42;13.20;83.00
40023;DHT22;25713;-35.352;149.036;2023-08-31T11:05:12;13.20;82.60
40023;DHT22;25713;-35.352;149.036;2023-08-31T11:07:42;13.20;82.70
40023;DHT22;25713;-35.352;149.036;2023-08-31T11:10:16;13.20;82.40
40023;DHT22;25713;-35.352;149.036;2023-08-31T11:12:47;13.20;82.80
40023;DHT22;25713;-35.352;149.036;2023-08-31T11:15:20;13.20;82.60
40023;DHT22;25713;-35.352;149.036;2023-08-31T11:17:54;13.10;82.10
40023;DHT22;25713;-35.352;149.036;2023-08-31T11:20:24;13.20;82.90
40023;DHT22;25713;-35.352;149.036;2023-08-31T11:22:54;13.20;82.20
40023;DHT22;25713;-35.352;149.036;2023-08-31T11:25:24;13.10;81.90
40023;DHT22;25713;-35.352;149.036;2023-08-31T11:27:57;13.10;82.30
40023;DHT22;25713;-35.352;149.036;2023-08-31T11:30:27;13.10;82.50
40023;DHT22;25713;-35.352;149.036;2023-08-31T11:33:03;13.10;82.50
40023;DHT22;25713;-35.352;149.036;2023-08-31T11:35:34;13.10;82.20
40023;DHT22;25713;-35.352;149.036;2023-08-31T11:38:04;13.10;81.90
40023;DHT22;25713;-35.352;149.036;2023-08-31T11:40:35;13.10;82.00
40023;DHT22;25713;-35.352;149.036;2023-08-31T11:43:06;13.10;81.80
40023;DHT22;25713;-35.352;149.036;2023-08-31T11:45:37;13.10;82.10
40023;DHT22;25713;-35.352;149.036;2023-08-31T11:48:11;13.00;80.50
40023;DHT22;25713;-35.352;149.036;2023-08-31T11:50:41;13.00;81.40
40023;DHT22;25713;-35.352;149.036;2023-08-31T11:53:11;13.00;81.80
40023;DHT22;25713;-35.352;149.036;2023-08-31T11:55:51;13.00;81.60
40023;DHT22;25713;-35.352;149.036;2023-08-31T11:58:21;13.00;81.90
40023;DHT22;25713;-35.352;149.036;2023-08-31T12:00:57;13.00;81.90
40023;DHT22;25713;-35.352;149.036;2023-08-31T12:03:43;13.00;81.40
40023;DHT22;25713;-35.352;149.036;2023-08-31T12:06:15;12.90;80.60
40023;DHT22;25713;-35.352;149.036;2023-08-31T12:08:45;12.90;81.00
40023;DHT22;25713;-35.352;149.036;2023-08-31T12:11:14;12.90;81.10
40023;DHT22;25713;-35.352;149.036;2023-08-31T12:13:44;12.90;80.90
40023;DHT22;25713;-35.352;149.036;2023-08-31T12:16:14;12.90;81.20
40023;DHT22;25713;-35.352;149.036;2023-08-31T12:18:45;12.90;81.10
40023;DHT22;25713;-35.352;149.036;2023-08-31T12:21:15;12.90;81.10
40023;DHT22;25713;-35.352;149.036;2023-08-31T12:23:48;12.90;81.20
40023;DHT22;25713;-35.352;149.036;2023-08-31T12:26:17;12.90;81.20
40023;DHT22;25713;-35.352;149.036;2023-08-31T12:28:47;12.90;81.00
40023;DHT22;25713;-35.352;149.036;2023-08-31T12:31:16;12.90;80.80
40023;DHT22;25713;-35.352;149.036;2023-08-31T12:33:49;12.90;80.80
40023;DHT22;25713;-35.352;149.036;2023-08-31T12:36:21;12.90;80.20
40023;DHT22;25713;-35.352;149.036;2023-08-31T12:38:49;12.90;80.20
40023;DHT22;25713;-35.352;149.036;2023-08-31T12:41:19;12.90;80.40
40023;DHT22;25713;-35.352;149.036;2023-08-31T12:43:48;12.90;80.80
40023;DHT22;25713;-35.352;149.036;2023-08-31T12:46:18;12.90;80.60
40023;DHT22;25713;-35.352;149.036;2023-08-31T12:48:51;12.90;79.90
40023;DHT22;25713;-35.352;149.036;2023-08-31T12:51:19;12.80;79.70
40023;DHT22;25713;-35.352;149.036;2023-08-31T12:53:48;12.80;79.90
40023;DHT22;25713;-35.352;149.036;2023-08-31T12:56:18;12.80;80.20
40023;DHT22;25713;-35.352;149.036;2023-08-31T12:58:48;12.80;80.30
40023;DHT22;25713;-35.352;149.036;2023-08-31T13:01:18;12.80;80.80
40023;DHT22;25713;-35.352;149.036;2023-08-31T13:03:51;12.80;81.00
40023;DHT22;25713;-35.352;149.036;2023-08-31T13:06:19;12.80;80.40
40023;DHT22;25713;-35.352;149.036;2023-08-31T13:08:48;12.80;80.20
40023;DHT22;25713;-35.352;149.036;2023-08-31T13:11:18;12.80;80.20
40023;DHT22;25713;-35.352;149.036;2023-08-31T13:13:48;12.80;80.20
40023;DHT22;25713;-35.352;149.036;2023-08-31T13:16:18;12.80;80.40
40023;DHT22;25713;-35.352;149.036;2023-08-31T13:18:50;12.80;80.70
40023;DHT22;25713;-35.352;149.036;2023-08-31T13:21:18;12.80;80.70
40023;DHT22;25713;-35.352;149.036;2023-08-31T13:23:48;12.80;80.50
40023;DHT22;25713;-35.352;149.036;2023-08-31T13:26:17;12.80;80.30
40023;DHT22;25713;-35.352;149.036;2023-08-31T13:28:47;12.80;80.70
40023;DHT22;25713;-35.352;149.036;2023-08-31T13:31:16;12.80;80.50
40023;DHT22;25713;-35.352;149.036;2023-08-31T13:33:48;12.80;80.00
40023;DHT22;25713;-35.352;149.036;2023-08-31T13:36:17;12.80;79.90
40023;DHT22;25713;-35.352;149.036;2023-08-31T13:38:46;12.80;80.30
40023;DHT22;25713;-35.352;149.036;2023-08-31T13:41:15;12.70;79.90
40023;DHT22;25713;-35.352;149.036;2023-08-31T13:43:45;12.70;80.00
40023;DHT22;25713;-35.352;149.036;2023-08-31T13:46:14;12.70;79.80
40023;DHT22;25713;-35.352;149.036;2023-08-31T13:48:44;12.70;80.50
40023;DHT22;25713;-35.352;149.036;2023-08-31T13:51:15;12.70;80.50
40023;DHT22;25713;-35.352;149.036;2023-08-31T13:53:45;12.70;80.60
40023;DHT22;25713;-35.352;149.036;2023-08-31T13:56:15;12.70;80.70
40023;DHT22;25713;-35.352;149.036;2023-08-31T13:58:44;12.70;80.60
40023;DHT22;25713;-35.352;149.036;2023-08-31T14:01:14;12.70;80.20
40023;DHT22;25713;-35.352;149.036;2023-08-31T14:03:44;12.70;81.20
40023;DHT22;25713;-35.352;149.036;2023-08-31T14:06:16;12.70;80.40
40023;DHT22;25713;-35.352;149.036;2023-08-31T14:08:46;12.70;80.50
40023;DHT22;25713;-35.352;149.036;2023-08-31T14:11:16;12.70;80.20
40023;DHT22;25713;-35.352;149.036;2023-08-31T14:13:45;12.60;80.60
40023;DHT22;25713;-35.352;149.036;2023-08-31T14:16:15;12.60;80.60
40023;DHT22;25713;-35.352;149.036;2023-08-31T14:18:44;12.60;80.50
40023;DHT22;25713;-35.352;149.036;2023-08-31T14:21:19;12.60;79.80
40023;DHT22;25713;-35.352;149.036;2023-08-31T14:23:49;12.60;80.10
40023;DHT22;25713;-35.352;149.036;2023-08-31T14:26:19;12.60;80.30
40023;DHT22;25713;-35.352;149.036;2023-08-31T14:28:48;12.60;80.90
40023;DHT22;25713;-35.352;149.036;2023-08-31T14:31:18;12.60;80.60
40023;DHT22;25713;-35.352;149.036;2023-08-31T14:33:48;12.60;80.40
40023;DHT22;25713;-35.352;149.036;2023-08-31T14:36:20;12.60;81.00
40023;DHT22;25713;-35.352;149.036;2023-08-31T14:38:50;12.60;81.70
40023;DHT22;25713;-35.352;149.036;2023-08-31T14:41:19;12.60;81.60
40023;DHT22;25713;-35.352;149.036;2023-08-31T14:43:49;12.60;81.70
40023;DHT22;25713;-35.352;149.036;2023-08-31T14:46:19;12.60;81.80
40023;DHT22;25713;-35.352;149.036;2023-08-31T15:59:46;12.10;82.30
40023;DHT22;25713;-35.352;149.036;2023-08-31T16:02:14;12.10;85.00
40023;DHT22;25713;-35.352;149.036;2023-08-31T16:04:44;12.10;86.10
40023;DHT22;25713;-35.352;149.036;2023-08-31T16:07:14;12.20;83.50
40023;DHT22;25713;-35.352;149.036;2023-08-31T16:09:44;12.20;83.20
40023;DHT22;25713;-35.352;149.036;2023-08-31T16:12:14;12.20;83.70
40023;DHT22;25713;-35.352;149.036;2023-08-31T16:14:47;12.20;84.80
40023;DHT22;25713;-35.352;149.036;2023-08-31T16:17:17;12.20;86.00
40023;DHT22;25713;-35.352;149.036;2023-08-31T16:19:46;12.20;87.10